sensor_id;sensor_type;location;lat;lon;timestamp;P1;durP1;ratioP1;P2;durP2;ratioP2
20997;SDS011;10657;51.276;6.390;2023-04-03T00:02:19;9.05;;;4.63;;
20997;SDS011;10657;51.276;6.390;2023-04-03T00:04:46;8.55;;;4.55;;
20997;SDS011;10657;51.276;6.390;2023-04-03T00:07:13;9.15;;;4.47;;
20997;SDS011;10657;51.276;6.390;2023-04-03T00:09:40;11.32;;;4.60;;
20997;SDS011;10657;51.276;6.390;2023-04-03T00:12:07;9.70;;;5.63;;
20997;SDS011;10657;51.276;6.390;2023-04-03T00:14:33;8.70;;;5.10;;
20997;SDS011;10657;51.276;6.390;2023-04-03T00:17:00;9.45;;;4.93;;
20997;SDS011;10657;51.276;6.390;2023-04-03T00:19:27;9.02;;;4.30;;
20997;SDS011;10657;51.276;6.390;2023-04-03T00:21:53;8.63;;;4.68;;
20997;SDS011;10657;51.276;6.390;2023-04-03T00:24:20;8.27;;;4.32;;
20997;SDS011;10657;51.276;6.390;2023-04-03T00:26:47;8.32;;;4.18;;
20997;SDS011;10657;51.276;6.390;2023-04-03T00:29:13;8.52;;;4.60;;
20997;SDS011;10657;51.276;6.390;2023-04-03T00:31:40;7.65;;;4.22;;
20997;SDS011;10657;51.276;6.390;2023-04-03T00:34:07;8.25;;;4.22;;
20997;SDS011;10657;51.276;6.390;2023-04-03T00:36:33;10.30;;;4.40;;
20997;SDS011;10657;51.276;6.390;2023-04-03T00:39:00;8.85;;;4.30;;
20997;SDS011;10657;51.276;6.390;2023-04-03T00:41:27;7.40;;;4.15;;
20997;SDS011;10657;51.276;6.390;2023-04-03T00:43:53;7.78;;;4.30;;
20997;SDS011;10657;51.276;6.390;2023-04-03T00:46:20;8.25;;;4.55;;
20997;SDS011;10657;51.276;6.390;2023-04-03T00:48:47;9.05;;;4.43;;
20997;SDS011;10657;51.276;6.390;2023-04-03T00:51:20;8.77;;;4.55;;
20997;SDS011;10657;51.276;6.390;2023-04-03T00:53:51;8.38;;;4.40;;
20997;SDS011;10657;51.276;6.390;2023-04-03T00:56:23;8.15;;;4.88;;
20997;SDS011;10657;51.276;6.390;2023-04-03T00:59:27;8.50;;;4.70;;
20997;SDS011;10657;51.276;6.390;2023-04-03T01:01:49;8.93;;;5.07;;
20997;SDS011;10657;51.276;6.390;2023-04-03T01:04:27;8.05;;;4.47;;
20997;SDS011;10657;51.276;6.390;2023-04-03T01:06:56;10.18;;;4.88;;
20997;SDS011;10657;51.276;6.390;2023-04-03T01:09:27;8.23;;;4.80;;
20997;SDS011;10657;51.276;6.390;2023-04-03T01:12:12;9.15;;;4.97;;
20997;SDS011;10657;51.276;6.390;2023-04-03T01:14:55;9.40;;;5.13;;
20997;SDS011;10657;51.276;6.390;2023-04-03T01:25:34;9.43;;;4.97;;
20997;SDS011;10657;51.276;6.390;2023-04-03T01:28:23;8.30;;;4.60;;
20997;SDS011;10657;51.276;6.390;2023-04-03T01:31:15;10.60;;;5.05;;
20997;SDS011;10657;51.276;6.390;2023-04-03T01:33:56;8.45;;;4.95;;
20997;SDS011;10657;51.276;6.390;2023-04-03T01:36:24;11.07;;;6.18;;
20997;SDS011;10657;51.276;6.390;2023-04-03T01:38:54;8.30;;;4.75;;
20997;SDS011;10657;51.276;6.390;2023-04-03T01:41:21;10.13;;;5.82;;
20997;SDS011;10657;51.276;6.390;2023-04-03T01:43:48;9.40;;;5.15;;
20997;SDS011;10657;51.276;6.390;2023-04-03T01:46:16;8.35;;;4.50;;
20997;SDS011;10657;51.276;6.390;2023-04-03T01:48:43;8.18;;;4.75;;
20997;SDS011;10657;51.276;6.390;2023-04-03T01:51:09;8.95;;;5.50;;
20997;SDS011;10657;51.276;6.390;2023-04-03T01:53:36;11.23;;;6.05;;
20997;SDS011;10657;51.276;6.390;2023-04-03T01:56:03;9.98;;;5.03;;
20997;SDS011;10657;51.276;6.390;2023-04-03T01:58:30;8.95;;;5.40;;
20997;SDS011;10657;51.276;6.390;2023-04-03T02:00:57;8.48;;;4.75;;
20997;SDS011;10657;51.276;6.390;2023-04-03T02:03:24;8.48;;;4.82;;
20997;SDS011;10657;51.276;6.390;2023-04-03T02:05:51;11.07;;;5.28;;
20997;SDS011;10657;51.276;6.390;2023-04-03T02:08:18;9.55;;;5.85;;
20997;SDS011;10657;51.276;6.390;2023-04-03T02:10:46;8.98;;;5.18;;
20997;SDS011;10657;51.276;6.390;2023-04-03T02:13:14;10.48;;;6.35;;
20997;SDS011;10657;51.276;6.390;2023-04-03T02:15:42;10.43;;;6.13;;
20997;SDS011;10657;51.276;6.390;2023-04-03T02:18:08;10.80;;;6.30;;
20997;SDS011;10657;51.276;6.390;2023-04-03T02:20:35;10.63;;;5.90;;
20997;SDS011;10657;51.276;6.390;2023-04-03T02:23:02;8.90;;;5.85;;
20997;SDS011;10657;51.276;6.390;2023-04-03T02:25:32;8.75;;;4.80;;
20997;SDS011;10657;51.276;6.390;2023-04-03T02:28:01;9.48;;;4.65;;
20997;SDS011;10657;51.276;6.390;2023-04-03T02:30:28;6.80;;;3.35;;
20997;SDS011;10657;51.276;6.390;2023-04-03T02:32:55;9.02;;;4.90;;
20997;SDS011;10657;51.276;6.390;2023-04-03T02:35:21;8.98;;;4.72;;
20997;SDS011;10657;51.276;6.390;2023-04-03T02:37:48;8.65;;;3.53;;
20997;SDS011;10657;51.276;6.390;2023-04-03T02:40:15;6.13;;;2.72;;
20997;SDS011;10657;51.276;6.390;2023-04-03T02:42:42;8.50;;;3.85;;
20997;SDS011;10657;51.276;6.390;2023-04-03T02:45:08;5.43;;;2.25;;
20997;SDS011;10657;51.276;6.390;2023-04-03T02:47:35;7.55;;;3.13;;
20997;SDS011;10657;51.276;6.390;2023-04-03T02:50:02;5.93;;;2.83;;
20997;SDS011;10657;51.276;6.390;2023-04-03T02:52:29;5.50;;;2.38;;
20997;SDS011;10657;51.276;6.390;2023-04-03T02:54:55;5.30;;;2.30;;
20997;SDS011;10657;51.276;6.390;2023-04-03T02:57:22;4.78;;;2.22;;
20997;SDS011;10657;51.276;6.390;2023-04-03T02:59:49;4.93;;;2.17;;
20997;SDS011;10657;51.276;6.390;2023-04-03T03:02:16;5.75;;;2.42;;
20997;SDS011;10657;51.276;6.390;2023-04-03T03:04:42;5.28;;;2.25;;
20997;SDS011;10657;51.276;6.390;2023-04-03T03:07:09;4.78;;;2.10;;
20997;SDS011;10657;51.276;6.390;2023-04-03T03:09:36;5.80;;;2.40;;
20997;SDS011;10657;51.276;6.390;2023-04-03T03:12:02;4.95;;;2.20;;
20997;SDS011;10657;51.276;6.390;2023-04-03T03:14:29;5.30;;;2.22;;
20997;SDS011;10657;51.276;6.390;2023-04-03T03:16:56;6.15;;;2.70;;
20997;SDS011;10657;51.276;6.390;2023-04-03T03:19:23;6.93;;;2.63;;
20997;SDS011;10657;51.276;6.390;2023-04-03T03:21:49;6.95;;;3.20;;
20997;SDS011;10657;51.276;6.390;2023-04-03T03:24:17;5.15;;;2.20;;
20997;SDS011;10657;51.276;6.390;2023-04-03T03:26:43;7.13;;;3.40;;
20997;SDS011;10657;51.276;6.390;2023-04-03T03:29:10;4.85;;;2.20;;
20997;SDS011;10657;51.276;6.390;2023-04-03T03:31:37;5.82;;;2.67;;
20997;SDS011;10657;51.276;6.390;2023-04-03T03:34:03;5.15;;;2.17;;
20997;SDS011;10657;51.276;6.390;2023-04-03T03:36:30;5.80;;;2.42;;
20997;SDS011;10657;51.276;6.390;2023-04-03T03:38:57;5.18;;;2.33;;
20997;SDS011;10657;51.276;6.390;2023-04-03T03:41:24;5.50;;;2.20;;
20997;SDS011;10657;51.276;6.390;2023-04-03T03:43:51;5.22;;;2.40;;
20997;SDS011;10657;51.276;6.390;2023-04-03T03:46:17;5.18;;;2.20;;
20997;SDS011;10657;51.276;6.390;2023-04-03T03:48:44;5.65;;;2.30;;
20997;SDS011;10657;51.276;6.390;2023-04-03T03:51:11;7.47;;;2.80;;
20997;SDS011;10657;51.276;6.390;2023-04-03T03:53:37;4.90;;;2.03;;
20997;SDS011;10657;51.276;6.390;2023-04-03T03:56:04;5.43;;;2.30;;
20997;SDS011;10657;51.276;6.390;2023-04-03T03:58:31;6.60;;;2.55;;
20997;SDS011;10657;51.276;6.390;2023-04-03T04:01:02;5.47;;;2.45;;
20997;SDS011;10657;51.276;6.390;2023-04-03T04:03:32;6.60;;;2.65;;
20997;SDS011;10657;51.276;6.390;2023-04-03T04:05:59;5.72;;;2.38;;
20997;SDS011;10657;51.276;6.390;2023-04-03T04:08:26;6.00;;;2.70;;
20997;SDS011;10657;51.276;6.390;2023-04-03T04:10:53;5.78;;;2.30;;
20997;SDS011;10657;51.276;6.390;2023-04-03T04:13:19;4.70;;;2.00;;
20997;SDS011;10657;51.276;6.390;2023-04-03T04:15:46;7.55;;;3.33;;
20997;SDS011;10657;51.276;6.390;2023-04-03T04:18:13;5.60;;;2.40;;
20997;SDS011;10657;51.276;6.390;2023-04-03T04:20:39;5.60;;;2.25;;
20997;SDS011;10657;51.276;6.390;2023-04-03T04:23:06;5.20;;;2.30;;
20997;SDS011;10657;51.276;6.390;2023-04-03T04:25:33;4.70;;;2.17;;
20997;SDS011;10657;51.276;6.390;2023-04-03T04:28:00;6.55;;;2.53;;
20997;SDS011;10657;51.276;6.390;2023-04-03T04:30:27;6.50;;;2.50;;
20997;SDS011;10657;51.276;6.390;2023-04-03T04:32:54;6.93;;;2.90;;
20997;SDS011;10657;51.276;6.390;2023-04-03T04:35:21;8.10;;;3.45;;
20997;SDS011;10657;51.276;6.390;2023-04-03T04:37:48;8.13;;;3.30;;
20997;SDS011;10657;51.276;6.390;2023-04-03T04:40:14;10.18;;;4.32;;
20997;SDS011;10657;51.276;6.390;2023-04-03T04:42:41;10.45;;;3.88;;
20997;SDS011;10657;51.276;6.390;2023-04-03T04:45:08;6.38;;;2.75;;
20997;SDS011;10657;51.276;6.390;2023-04-03T04:47:35;7.28;;;3.30;;
20997;SDS011;10657;51.276;6.390;2023-04-03T04:50:02;8.27;;;3.30;;
20997;SDS011;10657;51.276;6.390;2023-04-03T04:52:29;7.40;;;2.70;;
20997;SDS011;10657;51.276;6.390;2023-04-03T04:54:55;6.82;;;3.00;;
20997;SDS011;10657;51.276;6.390;2023-04-03T04:57:22;8.38;;;3.08;;
20997;SDS011;10657;51.276;6.390;2023-04-03T04:59:49;5.97;;;2.50;;
20997;SDS011;10657;51.276;6.390;2023-04-03T05:02:15;6.28;;;2.47;;
20997;SDS011;10657;51.276;6.390;2023-04-03T05:04:42;8.20;;;3.28;;
20997;SDS011;10657;51.276;6.390;2023-04-03T05:07:09;6.90;;;2.42;;
20997;SDS011;10657;51.276;6.390;2023-04-03T05:09:36;6.57;;;2.85;;
20997;SDS011;10657;51.276;6.390;2023-04-03T05:12:02;6.50;;;2.65;;
20997;SDS011;10657;51.276;6.390;2023-04-03T05:14:29;7.43;;;2.72;;
20997;SDS011;10657;51.276;6.390;2023-04-03T05:16:56;5.82;;;2.50;;
20997;SDS011;10657;51.276;6.390;2023-04-03T05:19:23;5.75;;;2.30;;
20997;SDS011;10657;51.276;6.390;2023-04-03T05:21:50;4.78;;;2.08;;
20997;SDS011;10657;51.276;6.390;2023-04-03T05:24:17;6.95;;;2.47;;
20997;SDS011;10657;51.276;6.390;2023-04-03T05:26:43;7.93;;;3.00;;
20997;SDS011;10657;51.276;6.390;2023-04-03T05:29:10;6.93;;;2.70;;
20997;SDS011;10657;51.276;6.390;2023-04-03T05:31:37;6.45;;;2.45;;
20997;SDS011;10657;51.276;6.390;2023-04-03T05:34:04;7.53;;;2.88;;
20997;SDS011;10657;51.276;6.390;2023-04-03T05:36:31;6.82;;;2.90;;
20997;SDS011;10657;51.276;6.390;2023-04-03T05:38:58;8.45;;;3.08;;
20997;SDS011;10657;51.276;6.390;2023-04-03T05:41:25;9.13;;;3.22;;
20997;SDS011;10657;51.276;6.390;2023-04-03T05:43:51;5.25;;;2.30;;
20997;SDS011;10657;51.276;6.390;2023-04-03T05:46:19;7.18;;;2.80;;
20997;SDS011;10657;51.276;6.390;2023-04-03T05:48:47;7.38;;;2.25;;
20997;SDS011;10657;51.276;6.390;2023-04-03T05:51:15;5.80;;;2.53;;
20997;SDS011;10657;51.276;6.390;2023-04-03T05:53:43;7.35;;;2.55;;
20997;SDS011;10657;51.276;6.390;2023-04-03T05:56:11;5.68;;;2.03;;
20997;SDS011;10657;51.276;6.390;2023-04-03T05:58:38;8.18;;;2.78;;
20997;SDS011;10657;51.276;6.390;2023-04-03T06:01:04;5.40;;;2.20;;
20997;SDS011;10657;51.276;6.390;2023-04-03T06:03:31;5.25;;;2.30;;
20997;SDS011;10657;51.276;6.390;2023-04-03T06:05:58;8.40;;;2.55;;
20997;SDS011;10657;51.276;6.390;2023-04-03T06:08:25;5.60;;;2.10;;
20997;SDS011;10657;51.276;6.390;2023-04-03T06:10:52;4.88;;;1.90;;
20997;SDS011;10657;51.276;6.390;2023-04-03T06:13:18;6.60;;;2.35;;
20997;SDS011;10657;51.276;6.390;2023-04-03T06:15:45;5.15;;;2.00;;
20997;SDS011;10657;51.276;6.390;2023-04-03T06:18:12;4.88;;;2.00;;
20997;SDS011;10657;51.276;6.390;2023-04-03T06:20:39;4.72;;;1.75;;
20997;SDS011;10657;51.276;6.390;2023-04-03T06:23:06;6.13;;;2.13;;
20997;SDS011;10657;51.276;6.390;2023-04-03T06:25:33;5.25;;;1.90;;
20997;SDS011;10657;51.276;6.390;2023-04-03T06:28:00;6.05;;;2.22;;
20997;SDS011;10657;51.276;6.390;2023-04-03T06:30:27;4.35;;;1.83;;
20997;SDS011;10657;51.276;6.390;2023-04-03T06:32:53;6.28;;;2.17;;
20997;SDS011;10657;51.276;6.390;2023-04-03T06:35:21;9.23;;;2.60;;
20997;SDS011;10657;51.276;6.390;2023-04-03T06:37:49;4.78;;;1.83;;
20997;SDS011;10657;51.276;6.390;2023-04-03T06:40:18;4.55;;;1.60;;
20997;SDS011;10657;51.276;6.390;2023-04-03T06:42:48;5.72;;;2.05;;
20997;SDS011;10657;51.276;6.390;2023-04-03T06:45:15;4.93;;;1.77;;
20997;SDS011;10657;51.276;6.390;2023-04-03T06:47:42;5.75;;;2.28;;
20997;SDS011;10657;51.276;6.390;2023-04-03T06:50:10;7.45;;;2.03;;
20997;SDS011;10657;51.276;6.390;2023-04-03T06:52:40;5.03;;;1.65;;
20997;SDS011;10657;51.276;6.390;2023-04-03T06:55:07;4.72;;;1.75;;
20997;SDS011;10657;51.276;6.390;2023-04-03T06:57:35;5.85;;;1.80;;
20997;SDS011;10657;51.276;6.390;2023-04-03T07:00:03;4.82;;;1.83;;
20997;SDS011;10657;51.276;6.390;2023-04-03T07:02:31;4.63;;;1.58;;
20997;SDS011;10657;51.276;6.390;2023-04-03T07:04:57;5.43;;;1.90;;
20997;SDS011;10657;51.276;6.390;2023-04-03T07:07:25;4.38;;;1.50;;
20997;SDS011;10657;51.276;6.390;2023-04-03T07:09:51;4.88;;;1.73;;
20997;SDS011;10657;51.276;6.390;2023-04-03T07:12:18;5.10;;;1.88;;
20997;SDS011;10657;51.276;6.390;2023-04-03T07:14:44;5.00;;;1.90;;
20997;SDS011;10657;51.276;6.390;2023-04-03T07:17:11;5.25;;;1.65;;
20997;SDS011;10657;51.276;6.390;2023-04-03T07:19:38;4.18;;;1.52;;
20997;SDS011;10657;51.276;6.390;2023-04-03T07:22:05;4.40;;;1.23;;
20997;SDS011;10657;51.276;6.390;2023-04-03T07:24:32;6.53;;;1.77;;
20997;SDS011;10657;51.276;6.390;2023-04-03T07:26:59;5.53;;;1.83;;
20997;SDS011;10657;51.276;6.390;2023-04-03T07:29:26;3.90;;;1.27;;
20997;SDS011;10657;51.276;6.390;2023-04-03T07:31:53;3.53;;;1.48;;
20997;SDS011;10657;51.276;6.390;2023-04-03T07:34:21;2.45;;;1.10;;
20997;SDS011;10657;51.276;6.390;2023-04-03T07:36:48;3.65;;;0.60;;
20997;SDS011;10657;51.276;6.390;2023-04-03T07:39:14;4.05;;;1.27;;
20997;SDS011;10657;51.276;6.390;2023-04-03T07:41:41;1.52;;;0.43;;
20997;SDS011;10657;51.276;6.390;2023-04-03T07:44:08;4.65;;;1.60;;
20997;SDS011;10657;51.276;6.390;2023-04-03T07:46:36;3.75;;;1.35;;
20997;SDS011;10657;51.276;6.390;2023-04-03T07:49:03;2.72;;;1.35;;
20997;SDS011;10657;51.276;6.390;2023-04-03T07:51:30;3.50;;;1.20;;
20997;SDS011;10657;51.276;6.390;2023-04-03T07:53:57;4.82;;;1.48;;
20997;SDS011;10657;51.276;6.390;2023-04-03T07:56:23;6.70;;;1.88;;
20997;SDS011;10657;51.276;6.390;2023-04-03T07:58:51;3.90;;;1.15;;
20997;SDS011;10657;51.276;6.390;2023-04-03T08:01:17;4.75;;;1.42;;
20997;SDS011;10657;51.276;6.390;2023-04-03T08:03:44;3.95;;;1.05;;
20997;SDS011;10657;51.276;6.390;2023-04-03T08:06:11;1.63;;;0.38;;
20997;SDS011;10657;51.276;6.390;2023-04-03T08:08:42;4.45;;;1.70;;
20997;SDS011;10657;51.276;6.390;2023-04-03T08:11:09;4.30;;;1.65;;
20997;SDS011;10657;51.276;6.390;2023-04-03T08:13:36;5.07;;;1.67;;
20997;SDS011;10657;51.276;6.390;2023-04-03T08:16:08;2.30;;;0.88;;
20997;SDS011;10657;51.276;6.390;2023-04-03T08:18:36;4.25;;;1.35;;
20997;SDS011;10657;51.276;6.390;2023-04-03T08:21:06;5.03;;;1.80;;
20997;SDS011;10657;51.276;6.390;2023-04-03T08:23:34;2.58;;;0.90;;
20997;SDS011;10657;51.276;6.390;2023-04-03T08:26:08;6.40;;;1.70;;
20997;SDS011;10657;51.276;6.390;2023-04-03T08:28:36;4.95;;;1.80;;
20997;SDS011;10657;51.276;6.390;2023-04-03T08:31:04;5.05;;;0.70;;
20997;SDS011;10657;51.276;6.390;2023-04-03T08:33:32;4.80;;;1.88;;
20997;SDS011;10657;51.276;6.390;2023-04-03T08:36:02;5.05;;;1.60;;
20997;SDS011;10657;51.276;6.390;2023-04-03T08:38:31;5.30;;;1.92;;
20997;SDS011;10657;51.276;6.390;2023-04-03T08:41:11;2.55;;;0.80;;
20997;SDS011;10657;51.276;6.390;2023-04-03T08:44:02;3.30;;;1.00;;
20997;SDS011;10657;51.276;6.390;2023-04-03T08:55:29;1.95;;;0.68;;
20997;SDS011;10657;51.276;6.390;2023-04-03T08:58:05;3.55;;;1.40;;
20997;SDS011;10657;51.276;6.390;2023-04-03T09:00:55;3.80;;;1.40;;
20997;SDS011;10657;51.276;6.390;2023-04-03T09:03:40;3.08;;;0.93;;
20997;SDS011;10657;51.276;6.390;2023-04-03T09:16:54;1.95;;;0.68;;
20997;SDS011;10657;51.276;6.390;2023-04-03T09:19:28;2.10;;;0.65;;
20997;SDS011;10657;51.276;6.390;2023-04-03T09:22:07;4.25;;;1.40;;
20997;SDS011;10657;51.276;6.390;2023-04-03T09:24:52;5.05;;;1.40;;
20997;SDS011;10657;51.276;6.390;2023-04-03T09:27:24;3.03;;;0.88;;
20997;SDS011;10657;51.276;6.390;2023-04-03T09:29:52;1.42;;;0.45;;
20997;SDS011;10657;51.276;6.390;2023-04-03T09:32:28;0.65;;;0.30;;
20997;SDS011;10657;51.276;6.390;2023-04-03T09:35:45;1.92;;;0.75;;
20997;SDS011;10657;51.276;6.390;2023-04-03T09:40:42;4.03;;;1.20;;
20997;SDS011;10657;51.276;6.390;2023-04-03T09:45:47;3.97;;;1.10;;
20997;SDS011;10657;51.276;6.390;2023-04-03T09:48:17;2.80;;;0.90;;
20997;SDS011;10657;51.276;6.390;2023-04-03T09:51:01;2.72;;;0.85;;
20997;SDS011;10657;51.276;6.390;2023-04-03T09:53:33;2.70;;;1.00;;
20997;SDS011;10657;51.276;6.390;2023-04-03T09:56:24;3.20;;;0.98;;
20997;SDS011;10657;51.276;6.390;2023-04-03T10:06:47;1.88;;;0.60;;
20997;SDS011;10657;51.276;6.390;2023-04-03T10:09:26;3.03;;;1.00;;
20997;SDS011;10657;51.276;6.390;2023-04-03T10:12:12;1.95;;;0.63;;
20997;SDS011;10657;51.276;6.390;2023-04-03T10:14:54;3.72;;;1.25;;
20997;SDS011;10657;51.276;6.390;2023-04-03T10:20:02;1.85;;;0.60;;
20997;SDS011;10657;51.276;6.390;2023-04-03T10:25:24;1.67;;;0.65;;
20997;SDS011;10657;51.276;6.390;2023-04-03T10:28:02;3.10;;;1.08;;
20997;SDS011;10657;51.276;6.390;2023-04-03T10:30:57;1.85;;;0.57;;
20997;SDS011;10657;51.276;6.390;2023-04-03T10:39:34;5.13;;;1.08;;
20997;SDS011;10657;51.276;6.390;2023-04-03T10:53:20;4.20;;;1.20;;
20997;SDS011;10657;51.276;6.390;2023-04-03T10:58:40;2.72;;;0.95;;
20997;SDS011;10657;51.276;6.390;2023-04-03T11:01:11;3.33;;;0.85;;
20997;SDS011;10657;51.276;6.390;2023-04-03T11:03:44;2.72;;;0.90;;
20997;SDS011;10657;51.276;6.390;2023-04-03T11:06:14;0.52;;;0.25;;
20997;SDS011;10657;51.276;6.390;2023-04-03T11:08:48;3.00;;;0.70;;
20997;SDS011;10657;51.276;6.390;2023-04-03T11:11:26;3.50;;;0.57;;
20997;SDS011;10657;51.276;6.390;2023-04-03T11:16:32;1.85;;;0.65;;
20997;SDS011;10657;51.276;6.390;2023-04-03T11:24:54;5.97;;;1.30;;
20997;SDS011;10657;51.276;6.390;2023-04-03T11:33:27;3.22;;;0.75;;
20997;SDS011;10657;51.276;6.390;2023-04-03T11:36:09;2.05;;;0.63;;
20997;SDS011;10657;51.276;6.390;2023-04-03T11:38:56;4.20;;;0.73;;
20997;SDS011;10657;51.276;6.390;2023-04-03T11:41:30;3.72;;;0.95;;
20997;SDS011;10657;51.276;6.390;2023-04-03T11:44:03;0.95;;;0.50;;
20997;SDS011;10657;51.276;6.390;2023-04-03T11:46:51;3.90;;;0.95;;
20997;SDS011;10657;51.276;6.390;2023-04-03T12:13:41;2.35;;;0.63;;
20997;SDS011;10657;51.276;6.390;2023-04-03T12:37:53;2.92;;;0.90;;
20997;SDS011;10657;51.276;6.390;2023-04-03T12:43:10;5.18;;;1.17;;
20997;SDS011;10657;51.276;6.390;2023-04-03T12:51:13;1.67;;;0.57;;
20997;SDS011;10657;51.276;6.390;2023-04-03T12:53:43;2.33;;;0.60;;
20997;SDS011;10657;51.276;6.390;2023-04-03T12:56:22;1.90;;;0.70;;
20997;SDS011;10657;51.276;6.390;2023-04-03T13:01:59;4.90;;;0.90;;
20997;SDS011;10657;51.276;6.390;2023-04-03T13:04:27;3.70;;;0.85;;
20997;SDS011;10657;51.276;6.390;2023-04-03T13:06:56;2.47;;;0.80;;
20997;SDS011;10657;51.276;6.390;2023-04-03T13:09:25;0.52;;;0.20;;
20997;SDS011;10657;51.276;6.390;2023-04-03T13:12:03;1.70;;;0.63;;
20997;SDS011;10657;51.276;6.390;2023-04-03T13:14:38;3.78;;;0.90;;
20997;SDS011;10657;51.276;6.390;2023-04-03T13:17:11;3.08;;;0.70;;
20997;SDS011;10657;51.276;6.390;2023-04-03T13:19:40;1.00;;;0.50;;
20997;SDS011;10657;51.276;6.390;2023-04-03T13:22:34;2.17;;;1.20;;
20997;SDS011;10657;51.276;6.390;2023-04-03T13:24:59;3.75;;;0.50;;
20997;SDS011;10657;51.276;6.390;2023-04-03T13:27:30;0.65;;;0.25;;
20997;SDS011;10657;51.276;6.390;2023-04-03T13:29:58;1.48;;;0.43;;
20997;SDS011;10657;51.276;6.390;2023-04-03T13:32:27;1.75;;;0.77;;
20997;SDS011;10657;51.276;6.390;2023-04-03T13:34:56;1.45;;;0.47;;
20997;SDS011;10657;51.276;6.390;2023-04-03T13:37:33;3.17;;;0.70;;
20997;SDS011;10657;51.276;6.390;2023-04-03T13:42:38;1.73;;;0.55;;
20997;SDS011;10657;51.276;6.390;2023-04-03T13:47:41;1.75;;;0.63;;
20997;SDS011;10657;51.276;6.390;2023-04-03T13:52:55;6.93;;;0.90;;
20997;SDS011;10657;51.276;6.390;2023-04-03T13:55:52;3.85;;;0.90;;
20997;SDS011;10657;51.276;6.390;2023-04-03T13:58:25;0.80;;;0.32;;
20997;SDS011;10657;51.276;6.390;2023-04-03T14:01:00;0.88;;;0.38;;
20997;SDS011;10657;51.276;6.390;2023-04-03T14:06:17;3.25;;;0.73;;
20997;SDS011;10657;51.276;6.390;2023-04-03T14:08:44;0.90;;;0.30;;
20997;SDS011;10657;51.276;6.390;2023-04-03T14:11:22;6.00;;;0.50;;
20997;SDS011;10657;51.276;6.390;2023-04-03T14:13:55;1.17;;;0.40;;
20997;SDS011;10657;51.276;6.390;2023-04-03T14:16:27;1.65;;;0.57;;
20997;SDS011;10657;51.276;6.390;2023-04-03T14:18:58;2.20;;;0.80;;
20997;SDS011;10657;51.276;6.390;2023-04-03T14:21:24;1.40;;;0.60;;
20997;SDS011;10657;51.276;6.390;2023-04-03T14:23:51;2.80;;;0.60;;
20997;SDS011;10657;51.276;6.390;2023-04-03T14:26:20;3.00;;;0.80;;
20997;SDS011;10657;51.276;6.390;2023-04-03T14:28:49;4.32;;;0.88;;
20997;SDS011;10657;51.276;6.390;2023-04-03T14:31:18;2.30;;;0.52;;
20997;SDS011;10657;51.276;6.390;2023-04-03T14:33:46;0.85;;;0.40;;
20997;SDS011;10657;51.276;6.390;2023-04-03T14:36:14;2.92;;;0.90;;
20997;SDS011;10657;51.276;6.390;2023-04-03T14:38:42;2.50;;;0.70;;
20997;SDS011;10657;51.276;6.390;2023-04-03T14:41:12;4.57;;;0.57;;
20997;SDS011;10657;51.276;6.390;2023-04-03T14:43:42;1.45;;;0.40;;
20997;SDS011;10657;51.276;6.390;2023-04-03T14:46:12;1.48;;;0.50;;
20997;SDS011;10657;51.276;6.390;2023-04-03T14:48:43;1.90;;;0.50;;
20997;SDS011;10657;51.276;6.390;2023-04-03T14:51:11;2.38;;;0.60;;
20997;SDS011;10657;51.276;6.390;2023-04-03T14:53:39;3.13;;;0.75;;
20997;SDS011;10657;51.276;6.390;2023-04-03T14:56:12;2.30;;;0.60;;
20997;SDS011;10657;51.276;6.390;2023-04-03T14:58:57;1.00;;;0.50;;
20997;SDS011;10657;51.276;6.390;2023-04-03T15:01:28;2.95;;;0.55;;
20997;SDS011;10657;51.276;6.390;2023-04-03T15:03:55;2.00;;;0.63;;
20997;SDS011;10657;51.276;6.390;2023-04-03T15:06:21;0.85;;;0.38;;
20997;SDS011;10657;51.276;6.390;2023-04-03T15:08:48;2.38;;;0.60;;
20997;SDS011;10657;51.276;6.390;2023-04-03T15:11:15;3.38;;;0.68;;
20997;SDS011;10657;51.276;6.390;2023-04-03T15:13:42;2.75;;;0.45;;
20997;SDS011;10657;51.276;6.390;2023-04-03T15:16:14;3.55;;;0.63;;
20997;SDS011;10657;51.276;6.390;2023-04-03T15:18:43;3.13;;;0.35;;
20997;SDS011;10657;51.276;6.390;2023-04-03T15:21:10;2.55;;;0.70;;
20997;SDS011;10657;51.276;6.390;2023-04-03T15:23:38;2.95;;;0.55;;
20997;SDS011;10657;51.276;6.390;2023-04-03T15:26:04;2.90;;;0.75;;
20997;SDS011;10657;51.276;6.390;2023-04-03T15:28:36;1.98;;;0.57;;
20997;SDS011;10657;51.276;6.390;2023-04-03T15:31:06;1.08;;;0.32;;
20997;SDS011;10657;51.276;6.390;2023-04-03T15:33:33;4.93;;;0.90;;
20997;SDS011;10657;51.276;6.390;2023-04-03T15:36:01;0.90;;;0.43;;
20997;SDS011;10657;51.276;6.390;2023-04-03T15:38:42;1.65;;;0.47;;
20997;SDS011;10657;51.276;6.390;2023-04-03T15:41:08;2.20;;;0.57;;
20997;SDS011;10657;51.276;6.390;2023-04-03T15:43:35;1.25;;;0.40;;
20997;SDS011;10657;51.276;6.390;2023-04-03T15:46:02;1.30;;;0.47;;
20997;SDS011;10657;51.276;6.390;2023-04-03T15:48:29;12.27;;;0.90;;
20997;SDS011;10657;51.276;6.390;2023-04-03T15:50:56;0.85;;;0.30;;
20997;SDS011;10657;51.276;6.390;2023-04-03T15:53:24;1.13;;;0.60;;
20997;SDS011;10657;51.276;6.390;2023-04-03T15:55:51;2.05;;;0.68;;
20997;SDS011;10657;51.276;6.390;2023-04-03T15:58:17;3.10;;;0.75;;
20997;SDS011;10657;51.276;6.390;2023-04-03T16:00:44;1.75;;;0.47;;
20997;SDS011;10657;51.276;6.390;2023-04-03T16:03:12;1.55;;;0.40;;
20997;SDS011;10657;51.276;6.390;2023-04-03T16:05:42;2.08;;;0.60;;
20997;SDS011;10657;51.276;6.390;2023-04-03T16:08:08;4.07;;;0.50;;
20997;SDS011;10657;51.276;6.390;2023-04-03T16:10:36;1.90;;;0.60;;
20997;SDS011;10657;51.276;6.390;2023-04-03T16:13:03;2.92;;;1.17;;
20997;SDS011;10657;51.276;6.390;2023-04-03T16:15:30;1.40;;;0.50;;
20997;SDS011;10657;51.276;6.390;2023-04-03T16:17:59;1.10;;;0.40;;
20997;SDS011;10657;51.276;6.390;2023-04-03T16:20:26;3.38;;;0.45;;
20997;SDS011;10657;51.276;6.390;2023-04-03T16:22:53;2.17;;;0.70;;
20997;SDS011;10657;51.276;6.390;2023-04-03T16:25:21;4.00;;;0.68;;
20997;SDS011;10657;51.276;6.390;2023-04-03T16:27:48;2.63;;;0.50;;
20997;SDS011;10657;51.276;6.390;2023-04-03T16:30:15;2.63;;;0.70;;
20997;SDS011;10657;51.276;6.390;2023-04-03T16:32:42;1.42;;;0.50;;
20997;SDS011;10657;51.276;6.390;2023-04-03T16:35:09;1.17;;;0.40;;
20997;SDS011;10657;51.276;6.390;2023-04-03T16:37:37;2.38;;;0.52;;
20997;SDS011;10657;51.276;6.390;2023-04-03T16:40:06;1.10;;;0.50;;
20997;SDS011;10657;51.276;6.390;2023-04-03T16:42:33;2.60;;;0.70;;
20997;SDS011;10657;51.276;6.390;2023-04-03T16:45:03;1.65;;;0.63;;
20997;SDS011;10657;51.276;6.390;2023-04-03T16:47:31;1.73;;;0.52;;
20997;SDS011;10657;51.276;6.390;2023-04-03T16:49:58;0.20;;;0.20;;
20997;SDS011;10657;51.276;6.390;2023-04-03T16:52:26;1.08;;;0.38;;
20997;SDS011;10657;51.276;6.390;2023-04-03T16:54:52;1.05;;;0.52;;
20997;SDS011;10657;51.276;6.390;2023-04-03T16:57:22;3.47;;;1.13;;
20997;SDS011;10657;51.276;6.390;2023-04-03T16:59:50;0.20;;;0.13;;
20997;SDS011;10657;51.276;6.390;2023-04-03T17:02:18;1.42;;;0.63;;
20997;SDS011;10657;51.276;6.390;2023-04-03T17:04:45;1.58;;;0.50;;
20997;SDS011;10657;51.276;6.390;2023-04-03T17:07:14;0.28;;;0.20;;
20997;SDS011;10657;51.276;6.390;2023-04-03T17:09:40;1.88;;;0.60;;
20997;SDS011;10657;51.276;6.390;2023-04-03T17:12:07;2.45;;;0.77;;
20997;SDS011;10657;51.276;6.390;2023-04-03T17:14:34;1.45;;;0.52;;
20997;SDS011;10657;51.276;6.390;2023-04-03T17:17:02;1.42;;;0.30;;
20997;SDS011;10657;51.276;6.390;2023-04-03T17:19:29;0.20;;;0.20;;
20997;SDS011;10657;51.276;6.390;2023-04-03T17:21:57;1.95;;;1.10;;
20997;SDS011;10657;51.276;6.390;2023-04-03T17:24:24;1.55;;;0.35;;
20997;SDS011;10657;51.276;6.390;2023-04-03T17:26:50;2.30;;;0.60;;
20997;SDS011;10657;51.276;6.390;2023-04-03T17:29:17;3.40;;;0.73;;
20997;SDS011;10657;51.276;6.390;2023-04-03T17:31:44;3.08;;;0.70;;